createdAt,value
2023-03-25T00:02:20.788Z,0.77
2023-03-25T00:04:50.306Z,3.80
2023-03-25T00:07:18.347Z,2.30
2023-03-25T00:09:44.628Z,3.93
2023-03-25T00:12:10.762Z,4.53
2023-03-25T00:14:38.710Z,2.27
2023-03-25T00:17:05.997Z,2.47
2023-03-25T00:19:32.960Z,3.53
2023-03-25T00:21:59.254Z,4.20
2023-03-25T00:24:26.123Z,5.73
2023-03-25T00:26:53.481Z,1.23
2023-03-25T00:29:20.125Z,1.57
2023-03-25T00:31:46.614Z,2.20
2023-03-25T00:34:14.051Z,3.27
2023-03-25T00:36:40.733Z,3.33
2023-03-25T00:39:07.556Z,7.37
2023-03-25T00:41:36.330Z,1.67
2023-03-25T00:44:03.607Z,4.57
2023-03-25T00:46:31.693Z,2.47
2023-03-25T00:48:58.805Z,3.33
2023-03-25T00:51:26.332Z,3.97
2023-03-25T00:53:53.808Z,3.90
2023-03-25T00:56:20.003Z,4.47
2023-03-25T00:58:46.836Z,4.23
2023-03-25T01:01:14.834Z,5.33
2023-03-25T01:03:43.059Z,2.87
2023-03-25T01:06:10.719Z,3.40
2023-03-25T01:08:37.318Z,5.33
2023-03-25T01:11:03.698Z,5.53
2023-03-25T01:13:29.842Z,3.20
2023-03-25T01:15:56.610Z,2.53
2023-03-25T01:18:22.811Z,7.63
2023-03-25T01:20:48.954Z,4.63
2023-03-25T01:23:15.272Z,3.90
2023-03-25T01:25:42.741Z,5.73
2023-03-25T01:28:09.905Z,3.90
2023-03-25T01:30:36.028Z,4.53
2023-03-25T01:33:02.874Z,5.50
2023-03-25T01:35:29.060Z,4.50
2023-03-25T01:37:55.198Z,6.63
2023-03-25T01:40:23.330Z,4.83
2023-03-25T01:42:49.950Z,6.83
2023-03-25T01:45:22.628Z,7.40
2023-03-25T01:47:52.973Z,6.23
2023-03-25T01:50:20.359Z,3.37
2023-03-25T01:52:50.147Z,4.70
2023-03-25T01:55:19.368Z,6.30
2023-03-25T01:57:46.968Z,5.30
2023-03-25T02:00:15.023Z,5.57
2023-03-25T02:02:42.264Z,5.17
2023-03-25T02:05:10.498Z,7.83
2023-03-25T02:07:41.747Z,3.17
2023-03-25T02:10:10.078Z,2.63
2023-03-25T02:12:36.329Z,4.10
2023-03-25T02:15:04.519Z,2.83
2023-03-25T02:17:36.858Z,6.77
2023-03-25T02:20:35.205Z,3.23
2023-03-25T02:23:41.379Z,5.07
2023-03-25T02:26:24.437Z,2.23
2023-03-25T02:28:55.378Z,4.03
2023-03-25T02:31:37.866Z,3.60
2023-03-25T02:34:37.320Z,4.80
2023-03-25T02:37:28.967Z,2.07
2023-03-25T02:39:59.012Z,3.77
2023-03-25T02:42:27.812Z,1.80
2023-03-25T02:44:57.959Z,1.00
2023-03-25T02:47:27.208Z,2.63
2023-03-25T02:49:55.954Z,3.27
2023-03-25T02:52:24.920Z,1.63
2023-03-25T02:54:51.834Z,4.03
2023-03-25T02:57:20.456Z,5.43
2023-03-25T02:59:48.026Z,2.77
2023-03-25T03:02:15.089Z,1.90
2023-03-25T03:04:46.499Z,6.87
2023-03-25T03:07:17.276Z,6.43
2023-03-25T03:09:45.369Z,1.70
2023-03-25T03:12:20.711Z,2.83
2023-03-25T03:18:37.327Z,2.87
2023-03-25T03:21:08.926Z,9.07
2023-03-25T03:23:45.258Z,3.50
2023-03-25T03:26:16.388Z,3.33
2023-03-25T03:28:47.166Z,3.60
2023-03-25T03:31:48.401Z,4.47
2023-03-25T03:34:09.776Z,4.97
2023-03-25T03:36:40.497Z,3.17
2023-03-25T03:39:10.546Z,6.30
2023-03-25T03:41:40.469Z,8.10
2023-03-25T03:44:09.548Z,6.70
2023-03-25T03:46:38.312Z,5.27
2023-03-25T03:49:07.608Z,4.63
2023-03-25T03:51:36.641Z,6.87
2023-03-25T03:54:05.803Z,6.00
2023-03-25T03:56:36.316Z,3.60
2023-03-25T03:59:05.778Z,5.57
2023-03-25T04:01:35.021Z,6.87
2023-03-25T04:04:03.978Z,8.07
2023-03-25T04:06:34.616Z,5.77
2023-03-25T04:09:05.426Z,5.47
2023-03-25T04:11:36.828Z,7.33
2023-03-25T04:14:03.759Z,4.47
2023-03-25T04:16:32.894Z,8.47
2023-03-25T04:19:03.160Z,6.57
2023-03-25T04:21:29.487Z,5.07
2023-03-25T04:23:55.628Z,6.07
2023-03-25T04:26:21.910Z,10.13
2023-03-25T04:28:48.192Z,6.17
2023-03-25T04:31:15.916Z,5.53
2023-03-25T04:33:45.951Z,8.40
2023-03-25T04:36:13.506Z,4.07
2023-03-25T04:38:40.385Z,6.13
2023-03-25T04:41:06.706Z,5.00
2023-03-25T04:43:32.953Z,7.67
2023-03-25T04:45:59.465Z,7.93
2023-03-25T04:48:29.119Z,8.27
2023-03-25T04:50:57.052Z,7.63
2023-03-25T04:53:23.927Z,10.13
2023-03-25T04:55:50.868Z,9.83
2023-03-25T04:58:17.572Z,6.33
2023-03-25T05:00:44.804Z,8.30
2023-03-25T05:03:10.996Z,4.97
2023-03-25T05:05:37.839Z,7.57
2023-03-25T05:08:04.352Z,6.87
2023-03-25T05:10:31.182Z,5.87
2023-03-25T05:13:02.132Z,5.53
2023-03-25T05:15:30.849Z,7.13
2023-03-25T05:17:57.056Z,8.10
2023-03-25T05:20:23.698Z,10.60
2023-03-25T05:22:52.595Z,8.40
2023-03-25T05:25:21.284Z,11.03
2023-03-25T05:27:48.186Z,6.40
2023-03-25T05:30:15.280Z,10.80
2023-03-25T05:32:44.751Z,5.13
2023-03-25T05:35:10.966Z,5.33
2023-03-25T05:37:37.344Z,5.77
2023-03-25T05:40:04.760Z,6.93
2023-03-25T05:42:46.042Z,9.53
2023-03-25T05:45:12.874Z,7.17
2023-03-25T05:47:39.452Z,6.93
2023-03-25T05:50:07.498Z,8.53
2023-03-25T05:52:33.784Z,7.57
2023-03-25T05:54:59.884Z,4.60
2023-03-25T05:57:26.009Z,5.07
2023-03-25T05:59:52.124Z,6.80
2023-03-25T06:02:19.747Z,8.00
2023-03-25T06:04:49.598Z,5.33
2023-03-25T06:07:19.264Z,6.00
2023-03-25T06:09:45.458Z,6.23
2023-03-25T06:12:13.274Z,8.47
2023-03-25T06:14:42.198Z,7.67
2023-03-25T06:17:10.064Z,7.77
2023-03-25T06:19:38.450Z,7.60
2023-03-25T06:22:05.590Z,10.93
2023-03-25T06:24:31.872Z,6.33
2023-03-25T06:26:58.003Z,7.10
2023-03-25T06:29:24.194Z,11.03
2023-03-25T06:31:50.393Z,4.03
2023-03-25T06:34:16.705Z,7.93
2023-03-25T06:36:43.462Z,5.10
2023-03-25T06:39:09.821Z,8.57
2023-03-25T06:41:37.192Z,12.90
2023-03-25T06:44:04.240Z,4.73
2023-03-25T06:46:30.593Z,11.47
2023-03-25T06:48:56.755Z,4.20
2023-03-25T06:51:23.145Z,10.17
2023-03-25T06:53:49.953Z,9.53
2023-03-25T06:56:18.166Z,7.63
2023-03-25T06:58:45.830Z,11.57
2023-03-25T07:01:12.067Z,12.00
2023-03-25T07:03:38.248Z,4.67
2023-03-25T07:06:05.830Z,6.30
2023-03-25T07:08:32.042Z,12.07
2023-03-25T07:11:01.445Z,5.33
2023-03-25T07:13:27.687Z,12.50
2023-03-25T07:15:54.720Z,14.50
2023-03-25T07:18:20.824Z,9.77
2023-03-25T07:20:47.588Z,12.70
2023-03-25T07:23:13.802Z,4.40
2023-03-25T07:25:39.985Z,9.10
2023-03-25T07:28:07.803Z,10.17
2023-03-25T07:30:33.966Z,5.67
2023-03-25T07:33:00.532Z,10.80
2023-03-25T07:35:26.783Z,4.97
2023-03-25T07:37:52.995Z,6.13
2023-03-25T07:40:19.120Z,12.17
2023-03-25T07:42:45.720Z,8.03
2023-03-25T07:45:12.853Z,9.20
2023-03-25T07:47:39.222Z,9.37
2023-03-25T07:50:06.825Z,7.50
2023-03-25T07:52:33.256Z,6.67
2023-03-25T07:54:59.972Z,9.93
2023-03-25T07:57:26.122Z,6.00
2023-03-25T07:59:52.238Z,3.50
2023-03-25T08:02:19.093Z,9.83
2023-03-25T08:04:45.796Z,10.27
2023-03-25T08:07:11.954Z,10.60
2023-03-25T08:09:38.201Z,5.37
2023-03-25T08:12:05.010Z,8.17
2023-03-25T08:14:31.124Z,12.07
2023-03-25T08:16:57.308Z,14.13
2023-03-25T08:19:24.849Z,8.07
2023-03-25T08:21:50.993Z,12.50
2023-03-25T08:24:17.179Z,11.30
2023-03-25T08:26:43.353Z,12.47
2023-03-25T08:29:10.673Z,10.70
2023-03-25T08:31:38.251Z,14.53
2023-03-25T08:34:05.053Z,14.43
2023-03-25T08:36:32.407Z,7.57
2023-03-25T08:38:58.518Z,7.97
2023-03-25T08:41:25.269Z,7.67
2023-03-25T08:43:51.385Z,11.00
2023-03-25T08:46:17.838Z,12.60
2023-03-25T08:48:44.080Z,7.30
2023-03-25T08:51:10.339Z,9.93
2023-03-25T08:53:37.121Z,9.00
2023-03-25T08:56:03.668Z,11.00
2023-03-25T08:58:29.835Z,10.87
2023-03-25T09:00:57.114Z,6.53
2023-03-25T09:03:24.376Z,11.00
2023-03-25T09:05:50.721Z,11.17
2023-03-25T09:08:17.229Z,18.57
2023-03-25T09:10:44.036Z,14.20
2023-03-25T09:13:10.372Z,9.17
2023-03-25T09:15:36.629Z,9.10
2023-03-25T09:18:02.941Z,10.63
2023-03-25T09:20:29.310Z,10.77
2023-03-25T09:22:55.534Z,9.83
2023-03-25T09:25:21.864Z,14.10
2023-03-25T09:27:48.770Z,12.50
2023-03-25T09:30:15.760Z,14.53
2023-03-25T09:32:42.054Z,9.07
2023-03-25T09:35:08.431Z,10.37
2023-03-25T09:37:35.138Z,11.03
2023-03-25T09:40:01.549Z,12.47
2023-03-25T09:42:37.362Z,11.27
2023-03-25T09:45:14.893Z,13.83
2023-03-25T09:47:43.622Z,8.20
2023-03-25T09:50:12.578Z,11.70
2023-03-25T09:52:48.148Z,10.67
2023-03-25T09:55:18.494Z,17.10
2023-03-25T09:57:48.358Z,12.50
2023-03-25T10:00:18.418Z,14.17
2023-03-25T10:02:46.707Z,12.77
2023-03-25T10:05:21.253Z,12.50
2023-03-25T10:08:04.508Z,9.73
2023-03-25T10:10:35.748Z,13.20
2023-03-25T10:13:09.007Z,14.97
2023-03-25T10:15:39.713Z,8.93
2023-03-25T10:18:20.880Z,10.27
2023-03-25T10:20:55.283Z,10.53
2023-03-25T10:23:26.241Z,10.80
2023-03-25T10:25:56.013Z,11.33
2023-03-25T10:28:27.576Z,10.90
2023-03-25T10:30:55.170Z,13.30
2023-03-25T10:33:26.936Z,13.07
2023-03-25T10:35:54.433Z,11.20
2023-03-25T10:38:23.517Z,13.03
2023-03-25T10:40:52.307Z,10.57
2023-03-25T10:43:24.278Z,7.33
2023-03-25T10:45:52.833Z,11.53
2023-03-25T10:48:22.438Z,11.30
2023-03-25T10:50:50.132Z,14.73
2023-03-25T10:53:20.886Z,10.93
2023-03-25T10:55:52.163Z,13.40
2023-03-25T10:58:18.811Z,12.60
2023-03-25T11:00:45.008Z,15.43
2023-03-25T11:03:15.895Z,11.53
2023-03-25T11:05:43.066Z,14.07
2023-03-25T11:08:23.668Z,13.30
2023-03-25T11:10:56.256Z,11.33
2023-03-25T11:13:24.515Z,8.23
2023-03-25T11:15:52.272Z,14.00
2023-03-25T11:18:22.149Z,7.53
2023-03-25T11:20:50.775Z,10.07
2023-03-25T11:23:23.925Z,10.53
2023-03-25T11:25:50.427Z,10.07
2023-03-25T11:28:18.385Z,15.80
2023-03-25T11:31:08.327Z,9.23
2023-03-25T11:33:36.072Z,15.27
2023-03-25T11:36:20.937Z,19.67
2023-03-25T11:38:52.403Z,10.23
2023-03-25T11:41:18.823Z,9.17
2023-03-25T11:43:47.729Z,12.07
2023-03-25T11:46:16.245Z,8.77
2023-03-25T11:48:45.317Z,15.63
2023-03-25T11:51:15.161Z,13.43
2023-03-25T11:53:44.918Z,16.63
2023-03-25T11:56:11.749Z,13.23
2023-03-25T11:58:39.745Z,11.27
2023-03-25T12:01:07.492Z,15.37
2023-03-25T12:03:34.477Z,12.97
2023-03-25T12:06:04.576Z,9.60
2023-03-25T12:08:43.028Z,9.30
2023-03-25T12:11:13.127Z,14.83
2023-03-25T12:13:49.615Z,10.70
2023-03-25T12:16:21.548Z,14.77
2023-03-25T12:19:04.848Z,8.17
2023-03-25T12:21:40.269Z,8.43
2023-03-25T12:24:20.995Z,12.47
2023-03-25T12:26:52.932Z,12.00
2023-03-25T12:29:28.552Z,12.90
2023-03-25T12:32:03.926Z,10.63
2023-03-25T12:34:39.810Z,7.67
2023-03-25T12:37:12.426Z,9.17
2023-03-25T12:39:47.960Z,6.50
2023-03-25T12:42:25.428Z,15.40
2023-03-25T12:45:03.920Z,11.27
2023-03-25T12:47:35.385Z,14.90
2023-03-25T12:50:18.040Z,10.50
2023-03-25T12:52:56.209Z,13.47
2023-03-25T12:55:45.631Z,13.30
2023-03-25T12:58:27.725Z,9.63
2023-03-25T13:00:59.743Z,6.20
2023-03-25T13:03:45.742Z,13.20
2023-03-25T13:06:18.133Z,13.73
2023-03-25T13:08:47.636Z,9.87
2023-03-25T13:11:17.430Z,14.27
2023-03-25T13:13:44.271Z,13.53
2023-03-25T13:16:12.476Z,8.33
2023-03-25T13:18:41.077Z,12.77
2023-03-25T13:21:14.079Z,11.73
2023-03-25T13:23:41.998Z,10.40
2023-03-25T13:26:10.943Z,17.83
2023-03-25T13:28:40.698Z,12.97
2023-03-25T13:31:10.969Z,9.13
2023-03-25T13:33:39.983Z,12.17
2023-03-25T13:36:10.842Z,10.13
2023-03-25T13:38:40.716Z,8.83
2023-03-25T13:41:12.143Z,10.20
2023-03-25T13:43:46.262Z,6.80
2023-03-25T13:46:14.432Z,4.83
2023-03-25T13:48:43.531Z,5.00
2023-03-25T13:51:10.157Z,5.00
2023-03-25T13:53:39.122Z,6.73
2023-03-25T13:56:27.817Z,3.40
2023-03-25T13:59:05.118Z,5.23
2023-03-25T14:01:57.828Z,1.40
2023-03-25T14:04:45.884Z,5.93
2023-03-25T14:07:40.430Z,7.50
2023-03-25T14:10:35.554Z,5.70
2023-03-25T14:13:05.138Z,7.10
2023-03-25T14:15:34.048Z,5.53
2023-03-25T14:18:01.661Z,8.37
2023-03-25T14:20:33.973Z,7.63
2023-03-25T14:23:02.571Z,5.97
2023-03-25T14:25:33.864Z,6.93
2023-03-25T14:28:01.477Z,6.63
2023-03-25T14:30:28.899Z,7.70
2023-03-25T14:32:56.387Z,7.00
2023-03-25T14:35:48.971Z,6.67
2023-03-25T14:38:21.009Z,7.93
2023-03-25T14:41:02.854Z,7.10
2023-03-25T14:43:32.512Z,8.73
2023-03-25T14:46:03.651Z,5.40
2023-03-25T14:48:33.930Z,8.20
2023-03-25T14:51:23.563Z,3.47
2023-03-25T14:53:55.504Z,9.63
2023-03-25T14:56:24.395Z,9.17
2023-03-25T14:58:53.480Z,8.37
2023-03-25T15:01:21.001Z,12.23
2023-03-25T15:03:49.934Z,13.90
2023-03-25T15:06:18.135Z,13.53
2023-03-25T15:08:51.539Z,10.67
2023-03-25T15:11:26.402Z,15.70
2023-03-25T15:13:57.192Z,9.13
2023-03-25T15:16:28.758Z,13.37
2023-03-25T15:19:09.897Z,7.87
2023-03-25T15:22:12.371Z,5.43
2023-03-25T15:24:39.083Z,8.17
2023-03-25T15:27:09.232Z,7.80
2023-03-25T15:29:42.769Z,5.93
2023-03-25T15:32:21.165Z,4.43
2023-03-25T15:35:04.964Z,5.67
2023-03-25T15:37:54.410Z,6.53
2023-03-25T15:40:29.828Z,6.03
2023-03-25T15:43:20.752Z,4.37
2023-03-25T15:46:13.666Z,6.13
2023-03-25T15:48:51.245Z,5.37
2023-03-25T15:51:30.927Z,5.87
2023-03-25T15:54:17.919Z,6.60
2023-03-25T15:56:46.185Z,7.00
2023-03-25T15:59:21.916Z,7.17
2023-03-25T16:01:49.242Z,6.07
2023-03-25T16:04:19.046Z,5.10
2023-03-25T16:06:48.147Z,7.30
2023-03-25T16:09:18.514Z,4.17
2023-03-25T16:11:44.886Z,9.43
2023-03-25T16:14:12.383Z,6.43
2023-03-25T16:16:40.921Z,12.83
2023-03-25T16:19:09.741Z,6.00
2023-03-25T16:21:36.133Z,12.27
2023-03-25T16:24:07.021Z,11.50
2023-03-25T16:26:37.725Z,6.10
2023-03-25T16:29:09.569Z,11.77
2023-03-25T16:31:41.865Z,9.83
2023-03-25T16:34:13.631Z,8.13
2023-03-25T16:36:41.830Z,11.20
2023-03-25T16:39:11.289Z,7.73
2023-03-25T16:41:37.421Z,6.87
2023-03-25T16:44:03.590Z,15.83
2023-03-25T16:46:30.872Z,13.33
2023-03-25T16:48:57.613Z,15.33
2023-03-25T16:51:28.099Z,9.30
2023-03-25T16:53:58.585Z,7.83
2023-03-25T16:56:29.063Z,7.23
2023-03-25T16:58:59.180Z,9.03
2023-03-25T17:01:27.912Z,8.63
2023-03-25T17:04:07.655Z,7.10
2023-03-25T17:06:38.458Z,6.93
2023-03-25T17:09:09.141Z,10.90
2023-03-25T17:11:35.924Z,10.53
2023-03-25T17:14:06.912Z,7.30
2023-03-25T17:16:33.677Z,3.30
2023-03-25T17:19:01.245Z,8.77
2023-03-25T17:21:29.456Z,8.63
2023-03-25T17:23:57.730Z,5.33
2023-03-25T17:26:26.006Z,11.03
2023-03-25T17:28:58.968Z,8.33
2023-03-25T17:31:28.792Z,8.17
2023-03-25T17:33:59.687Z,5.07
2023-03-25T17:36:26.952Z,5.60
2023-03-25T17:38:53.259Z,5.37
2023-03-25T17:41:20.241Z,3.93
2023-03-25T17:43:48.260Z,5.63
2023-03-25T17:46:19.827Z,6.97
2023-03-25T17:48:46.185Z,10.40
2023-03-25T17:51:12.881Z,3.00
2023-03-25T17:53:39.012Z,10.03
2023-03-25T17:56:06.197Z,9.30
2023-03-25T17:58:32.490Z,8.67
2023-03-25T18:00:58.705Z,12.53
2023-03-25T18:03:28.722Z,5.80
2023-03-25T18:05:54.930Z,6.17
2023-03-25T18:08:22.577Z,9.93
2023-03-25T18:10:48.987Z,7.30
2023-03-25T18:13:15.239Z,7.93
2023-03-25T18:15:41.728Z,5.47
2023-03-25T18:18:13.503Z,6.10
2023-03-25T18:20:40.637Z,5.20
2023-03-25T18:23:06.744Z,11.13
2023-03-25T18:25:33.297Z,6.53
2023-03-25T18:27:59.844Z,6.47
2023-03-25T18:30:27.555Z,5.10
2023-03-25T18:32:53.692Z,6.03
2023-03-25T18:35:20.469Z,3.80
2023-03-25T18:37:47.970Z,4.57
2023-03-25T18:40:16.793Z,6.43
2023-03-25T18:42:42.968Z,4.83
2023-03-25T18:45:10.328Z,8.57
2023-03-25T18:47:36.530Z,5.90
2023-03-25T18:50:14.998Z,3.03
2023-03-25T18:52:41.450Z,4.70
2023-03-25T18:55:09.301Z,2.93
2023-03-25T18:57:35.642Z,4.90
2023-03-25T19:00:04.394Z,8.70
2023-03-25T19:02:30.699Z,5.27
2023-03-25T19:05:01.117Z,8.30
2023-03-25T19:07:28.890Z,4.77
2023-03-25T19:09:55.026Z,8.33
2023-03-25T19:12:21.853Z,3.50
2023-03-25T19:14:48.128Z,3.07
2023-03-25T19:17:14.533Z,9.30
2023-03-25T19:19:40.897Z,5.90
2023-03-25T19:22:09.042Z,8.27
2023-03-25T19:24:35.369Z,7.43
2023-03-25T19:27:01.492Z,7.77
2023-03-25T19:29:28.427Z,9.23
2023-03-25T19:31:54.575Z,8.23
2023-03-25T19:34:21.559Z,10.77
2023-03-25T19:36:47.689Z,10.83
2023-03-25T19:39:14.797Z,18.57
2023-03-25T19:41:42.068Z,11.97
2023-03-25T19:44:08.238Z,13.23
2023-03-25T19:46:35.092Z,10.63
2023-03-25T19:49:01.250Z,18.73
2023-03-25T19:51:27.410Z,15.13
2023-03-25T19:53:54.060Z,10.73
2023-03-25T19:56:20.670Z,11.50
2023-03-25T19:58:46.858Z,19.90
2023-03-25T20:01:13.097Z,18.80
2023-03-25T20:03:40.293Z,9.30
2023-03-25T20:06:07.412Z,12.13
2023-03-25T20:08:33.583Z,16.93
2023-03-25T20:11:00.133Z,19.07
2023-03-25T20:13:26.388Z,9.90
2023-03-25T20:15:52.766Z,18.80
2023-03-25T20:18:19.199Z,15.20
2023-03-25T20:20:46.101Z,18.83
2023-03-25T20:23:12.344Z,18.30
2023-03-25T20:25:38.638Z,14.27
2023-03-25T20:28:05.454Z,22.87
2023-03-25T20:30:34.371Z,17.60
2023-03-25T20:33:00.553Z,15.60
2023-03-25T20:35:27.461Z,18.37
2023-03-25T20:37:54.326Z,20.27
2023-03-25T20:40:30.641Z,19.97
2023-03-25T20:43:04.181Z,16.23
2023-03-25T20:45:32.059Z,22.20
2023-03-25T20:47:58.593Z,16.90
2023-03-25T20:50:25.366Z,13.23
2023-03-25T20:52:51.983Z,15.93
2023-03-25T20:55:19.174Z,20.50
2023-03-25T20:57:45.451Z,25.87
2023-03-25T21:00:13.569Z,18.17
2023-03-25T21:02:40.554Z,20.73
2023-03-25T21:05:07.500Z,23.93
2023-03-25T21:07:34.730Z,19.17
2023-03-25T21:10:01.072Z,21.33
2023-03-25T21:12:40.471Z,17.27
2023-03-25T21:15:09.789Z,18.57
2023-03-25T21:17:36.467Z,13.97
2023-03-25T21:20:05.467Z,21.10
2023-03-25T21:22:31.736Z,12.77
2023-03-25T21:24:57.872Z,12.10
2023-03-25T21:27:38.248Z,10.77
2023-03-25T21:30:08.814Z,16.30
2023-03-25T21:32:34.989Z,15.40
2023-03-25T21:35:01.148Z,19.23
2023-03-25T21:37:28.205Z,14.33
2023-03-25T21:39:57.190Z,22.27
2023-03-25T21:42:23.729Z,29.40
2023-03-25T21:44:49.849Z,18.20
2023-03-25T21:47:17.140Z,22.20
2023-03-25T21:49:43.258Z,17.10
2023-03-25T21:52:12.016Z,32.80
2023-03-25T21:54:39.173Z,37.93
2023-03-25T21:57:07.129Z,21.03
2023-03-25T21:59:33.838Z,14.87
2023-03-25T22:02:00.104Z,19.40
2023-03-25T22:04:27.371Z,18.90
2023-03-25T22:06:54.598Z,21.13
2023-03-25T22:09:20.752Z,23.87
2023-03-25T22:11:46.925Z,18.17
2023-03-25T22:14:13.346Z,25.20
2023-03-25T22:16:39.767Z,18.57
2023-03-25T22:19:06.281Z,24.00
2023-03-25T22:21:36.457Z,26.43
2023-03-25T22:24:04.513Z,19.70
2023-03-25T22:26:31.980Z,20.57
2023-03-25T22:29:00.617Z,23.07
2023-03-25T22:31:29.978Z,23.47
2023-03-25T22:33:57.731Z,18.60
2023-03-25T22:36:23.943Z,23.53
2023-03-25T22:38:50.926Z,18.77
2023-03-25T22:41:18.242Z,5.77
2023-03-25T22:43:45.053Z,11.03
2023-03-25T22:46:11.638Z,10.90
2023-03-25T22:48:38.478Z,14.17
2023-03-25T22:51:05.627Z,16.57
2023-03-25T22:53:31.887Z,14.87
2023-03-25T22:55:58.610Z,15.30
2023-03-25T22:58:26.893Z,21.23
2023-03-25T23:00:53.903Z,17.43
2023-03-25T23:03:20.469Z,19.13
2023-03-25T23:05:55.628Z,20.60
2023-03-25T23:08:25.018Z,17.43
2023-03-25T23:10:52.124Z,19.30
2023-03-25T23:13:19.012Z,22.80
2023-03-25T23:15:45.553Z,18.73
2023-03-25T23:18:11.697Z,23.73
2023-03-25T23:20:37.855Z,27.07
2023-03-25T23:23:03.964Z,29.47
2023-03-25T23:25:30.665Z,19.70
2023-03-25T23:27:57.501Z,26.47
2023-03-25T23:30:24.313Z,24.10
2023-03-25T23:32:50.753Z,25.27
2023-03-25T23:35:18.079Z,28.30
2023-03-25T23:37:44.781Z,23.97
2023-03-25T23:40:12.019Z,21.13
2023-03-25T23:42:38.164Z,24.47
2023-03-25T23:45:05.289Z,28.37
2023-03-25T23:47:32.185Z,32.80
2023-03-25T23:50:01.117Z,18.43
2023-03-25T23:52:27.427Z,27.13
2023-03-25T23:54:53.564Z,26.50
2023-03-25T23:57:19.817Z,28.37
2023-03-25T23:59:46.010Z,24.47
